createdAt,value
2023-01-12T00:01:40.712Z,-5.25
2023-01-12T00:04:14.114Z,-5.21
2023-01-12T00:06:42.485Z,-5.10
2023-01-12T00:09:10.871Z,-5.11
2023-01-12T00:11:39.870Z,-5.09
2023-01-12T00:14:09.414Z,-5.16
2023-01-12T00:16:38.320Z,-5.15
2023-01-12T00:19:11.313Z,-5.12
2023-01-12T00:21:59.226Z,-5.13
2023-01-12T00:24:33.911Z,-5.13
2023-01-12T00:27:04.377Z,-5.10
2023-01-12T00:29:33.134Z,-5.09
2023-01-12T00:32:01.087Z,-5.07
2023-01-12T00:34:29.824Z,-5.10
2023-01-12T00:36:59.863Z,-5.06
2023-01-12T00:39:27.456Z,-5.13
2023-01-12T00:42:17.025Z,-5.18
2023-01-12T00:45:07.800Z,-5.15
2023-01-12T00:47:35.547Z,-5.16
2023-01-12T00:50:03.352Z,-5.10
2023-01-12T00:52:32.029Z,-5.11
2023-01-12T00:55:00.164Z,-5.09
2023-01-12T00:57:28.563Z,-4.97
2023-01-12T00:59:59.463Z,-4.95
2023-01-12T01:02:30.930Z,-4.96
2023-01-12T01:04:58.610Z,-4.91
2023-01-12T01:07:26.294Z,-5.02
2023-01-12T01:09:58.317Z,-5.08
2023-01-12T01:12:25.976Z,-5.11
2023-01-12T01:14:53.783Z,-5.14
2023-01-12T01:17:22.107Z,-5.17
2023-01-12T01:19:49.941Z,-5.12
2023-01-12T01:22:17.600Z,-5.08
2023-01-12T01:24:45.160Z,-5.09
2023-01-12T01:27:12.732Z,-5.07
2023-01-12T01:29:40.668Z,-5.13
2023-01-12T01:32:08.206Z,-5.18
2023-01-12T01:34:36.418Z,-5.23
2023-01-12T01:37:04.407Z,-5.14
2023-01-12T01:39:31.890Z,-5.03
2023-01-12T01:42:01.314Z,-5.00
2023-01-12T01:44:31.772Z,-4.96
2023-01-12T01:47:04.199Z,-5.07
2023-01-12T01:49:37.385Z,-5.06
2023-01-12T01:52:26.054Z,-5.11
2023-01-12T01:55:09.984Z,-5.14
2023-01-12T01:57:49.731Z,-5.18
2023-01-12T02:00:18.095Z,-5.19
2023-01-12T02:02:47.357Z,-5.25
2023-01-12T02:05:20.291Z,-5.22
2023-01-12T02:07:51.239Z,-5.17
2023-01-12T02:10:20.175Z,-5.15
2023-01-12T02:13:06.273Z,-5.24
2023-01-12T02:16:12.734Z,-5.19
2023-01-12T02:18:49.760Z,-5.28
2023-01-12T02:21:48.179Z,-5.23
2023-01-12T02:24:59.096Z,-5.21
2023-01-12T02:27:43.149Z,-5.16
2023-01-12T02:30:39.346Z,-5.09
2023-01-12T02:33:40.177Z,-5.08
2023-01-12T02:36:38.728Z,-5.27
2023-01-12T02:39:18.955Z,-5.23
2023-01-12T02:42:11.760Z,-5.21
2023-01-12T02:44:53.116Z,-5.17
2023-01-12T02:47:42.290Z,-5.22
2023-01-12T02:50:19.995Z,-5.21
2023-01-12T02:52:55.275Z,-5.17
2023-01-12T02:55:26.503Z,-5.20
2023-01-12T02:57:56.301Z,-5.18
2023-01-12T03:00:24.264Z,-5.09
2023-01-12T03:02:51.955Z,-5.06
2023-01-12T03:05:27.273Z,-5.09
2023-01-12T03:08:02.634Z,-5.14
2023-01-12T03:10:46.981Z,-5.15
2023-01-12T03:13:17.314Z,-5.11
2023-01-12T03:15:50.177Z,-5.06
2023-01-12T03:18:36.340Z,-5.09
2023-01-12T03:21:13.110Z,-5.09
2023-01-12T03:23:59.587Z,-5.08
2023-01-12T03:26:29.539Z,-4.99
2023-01-12T03:29:24.739Z,-5.02
2023-01-12T03:31:52.680Z,-5.01
2023-01-12T03:34:21.082Z,-4.96
2023-01-12T03:37:08.474Z,-4.92
2023-01-12T03:39:55.845Z,-4.82
2023-01-12T03:42:31.267Z,-4.91
2023-01-12T03:45:20.441Z,-4.89
2023-01-12T03:47:54.794Z,-4.92
2023-01-12T03:50:31.346Z,-4.84
2023-01-12T03:53:01.836Z,-4.91
2023-01-12T03:55:31.964Z,-4.80
2023-01-12T03:58:00.037Z,-4.82
2023-01-12T04:00:29.563Z,-4.88
2023-01-12T04:03:24.732Z,-4.96
2023-01-12T04:05:52.520Z,-4.93
2023-01-12T04:08:20.925Z,-4.92
2023-01-12T08:24:41.230Z,-4.58
2023-01-12T08:27:09.871Z,-4.50
2023-01-12T08:29:45.897Z,-4.34
2023-01-12T08:32:18.003Z,-4.33
2023-01-12T08:34:49.043Z,-4.30
2023-01-12T08:37:21.428Z,-4.32
2023-01-12T08:39:50.142Z,-4.41
2023-01-12T08:42:18.828Z,-4.41
2023-01-12T08:44:48.146Z,-4.33
2023-01-12T08:47:21.294Z,-4.40
2023-01-12T08:49:49.272Z,-4.29
2023-01-12T08:52:18.247Z,-4.13
2023-01-12T08:54:47.152Z,-4.16
2023-01-12T08:57:16.372Z,-4.14
2023-01-12T08:59:43.918Z,-4.10
2023-01-12T09:02:13.143Z,-4.20
2023-01-12T09:04:41.476Z,-4.17
2023-01-12T09:07:10.360Z,-4.22
2023-01-12T09:09:38.178Z,-4.23
2023-01-12T09:12:06.417Z,-4.21
2023-01-12T09:14:39.018Z,-4.02
2023-01-12T09:17:07.621Z,-3.95
2023-01-12T09:19:35.478Z,-3.92
2023-01-12T09:22:03.791Z,-3.89
2023-01-12T09:24:31.442Z,-3.76
2023-01-12T09:27:00.175Z,-3.76
2023-01-12T09:29:27.835Z,-3.81
2023-01-12T09:31:55.420Z,-3.94
2023-01-12T09:34:23.560Z,-4.04
2023-01-12T09:36:52.484Z,-4.06
2023-01-12T09:39:27.243Z,-4.08
2023-01-12T09:42:15.215Z,-4.08
2023-01-12T09:45:08.842Z,-3.95
2023-01-12T09:47:52.732Z,-3.83
2023-01-12T09:50:39.520Z,-3.82
2023-01-12T09:53:21.521Z,-3.77
2023-01-12T09:55:55.624Z,-3.76
2023-01-12T09:58:44.480Z,-3.77
2023-01-12T10:01:24.077Z,-3.75
2023-01-12T10:03:56.412Z,-3.75
2023-01-12T10:06:24.281Z,-3.82
2023-01-12T10:08:56.381Z,-3.71
2023-01-12T10:11:34.516Z,-3.72
2023-01-12T10:14:27.140Z,-3.69
2023-01-12T10:17:20.437Z,-3.69
2023-01-12T10:20:10.163Z,-3.78
2023-01-12T10:22:55.237Z,-3.80
2023-01-12T10:25:48.607Z,-3.81
2023-01-12T10:28:25.891Z,-3.74
2023-01-12T10:30:56.373Z,-3.71
2023-01-12T10:33:30.371Z,-3.70
2023-01-12T10:36:04.399Z,-3.64
2023-01-12T10:38:38.616Z,-3.60
2023-01-12T10:41:20.149Z,-3.56
2023-01-12T10:44:15.267Z,-3.47
2023-01-12T10:46:42.951Z,-3.47
2023-01-12T10:49:20.868Z,-3.49
2023-01-12T10:52:05.927Z,-3.49
2023-01-12T10:54:36.730Z,-3.44
2023-01-12T10:57:24.175Z,-3.44
2023-01-12T10:59:54.738Z,-3.52
2023-01-12T11:02:24.321Z,-3.52
2023-01-12T11:04:53.703Z,-3.48
2023-01-12T11:07:29.325Z,-3.50
2023-01-12T11:10:19.456Z,-3.60
2023-01-12T11:12:57.333Z,-3.53
2023-01-12T11:15:25.368Z,-3.43
2023-01-12T11:18:11.530Z,-3.43
2023-01-12T11:20:48.226Z,-3.38
2023-01-12T11:23:15.736Z,-3.27
2023-01-12T11:25:49.865Z,-3.32
2023-01-12T11:28:42.611Z,-3.30
2023-01-12T11:31:39.637Z,-3.34
2023-01-12T11:34:17.917Z,-3.27
2023-01-12T11:37:00.931Z,-3.25
2023-01-12T11:39:30.501Z,-3.25
2023-01-12T11:42:20.904Z,-3.23
2023-01-12T11:45:01.819Z,-3.27
2023-01-12T11:47:41.744Z,-3.24
2023-01-12T11:50:15.126Z,-3.20
2023-01-12T11:52:44.108Z,-3.24
2023-01-12T11:55:17.055Z,-3.17
2023-01-12T11:58:16.864Z,-3.13
2023-01-12T12:00:55.415Z,-3.15
2023-01-12T12:03:54.610Z,-3.07
2023-01-12T12:06:36.819Z,-3.05
2023-01-12T12:09:55.508Z,-2.98
2023-01-12T12:12:42.641Z,-2.97
2023-01-12T12:15:38.589Z,-2.98
2023-01-12T12:18:08.972Z,-3.06
2023-01-12T12:20:41.729Z,-3.09
2023-01-12T12:23:37.428Z,-3.17
2023-01-12T12:26:30.987Z,-3.14
2023-01-12T12:29:43.095Z,-3.14
2023-01-12T12:32:22.244Z,-3.10
2023-01-12T12:35:14.759Z,-2.99
2023-01-12T12:38:00.791Z,-3.05
2023-01-12T12:41:02.256Z,-3.04
2023-01-12T12:43:52.662Z,-3.09
2023-01-12T12:46:49.927Z,-3.08
2023-01-12T12:49:28.112Z,-3.06
2023-01-12T12:52:00.416Z,-3.11
2023-01-12T12:54:29.651Z,-3.00
2023-01-12T12:56:57.998Z,-3.01
2023-01-12T12:59:31.976Z,-3.01
2023-01-12T13:02:02.079Z,-3.11
2023-01-12T13:05:03.698Z,-3.15
2023-01-12T13:07:36.955Z,-3.19
2023-01-12T13:10:26.623Z,-3.20
2023-01-12T13:13:04.600Z,-3.20
2023-01-12T13:15:37.287Z,-3.17
2023-01-12T13:18:06.151Z,-3.19
2023-01-12T17:55:57.208Z,-3.16
2023-01-12T17:58:24.727Z,-3.18
2023-01-12T18:00:52.473Z,-3.15
2023-01-12T18:03:20.116Z,-3.16
2023-01-12T18:05:57.793Z,-3.13
2023-01-12T18:08:31.241Z,-3.21
2023-01-12T18:11:02.910Z,-3.19
2023-01-12T18:13:31.037Z,-3.22
2023-01-12T18:16:00.433Z,-3.21
2023-01-12T18:18:28.444Z,-3.21
2023-01-12T18:21:02.891Z,-3.21
2023-01-12T18:23:31.083Z,-3.16
2023-01-12T18:26:03.791Z,-3.20
2023-01-12T18:28:32.681Z,-3.13
2023-01-12T18:31:07.541Z,-3.05
2023-01-12T18:33:35.600Z,-3.08
2023-01-12T18:36:10.729Z,-3.10
2023-01-12T18:38:44.539Z,-3.15
2023-01-12T18:41:31.714Z,-3.08
2023-01-12T18:44:02.618Z,-3.07
2023-01-12T18:46:49.225Z,-3.05
2023-01-12T18:49:27.573Z,-3.14
2023-01-12T18:52:14.735Z,-3.11
2023-01-12T18:54:49.097Z,-3.14
2023-01-12T18:57:18.070Z,-3.19
2023-01-12T18:59:46.831Z,-3.17
2023-01-12T19:02:15.993Z,-3.04
2023-01-12T19:04:49.967Z,-3.08
2023-01-12T19:07:34.875Z,-3.01
2023-01-12T19:10:02.945Z,-2.88
2023-01-12T19:12:33.754Z,-2.90
2023-01-12T19:15:20.233Z,-2.93
2023-01-12T19:17:47.889Z,-2.89
2023-01-12T19:20:16.162Z,-2.97
2023-01-12T19:23:02.259Z,-2.97
2023-01-12T19:25:52.074Z,-2.97
2023-01-12T19:28:38.370Z,-2.94
2023-01-12T19:31:10.812Z,-3.05
2023-01-12T19:33:39.289Z,-3.12
2023-01-12T19:36:10.323Z,-3.06
2023-01-12T19:38:38.191Z,-3.07
2023-01-12T19:41:12.791Z,-3.01
2023-01-12T19:43:45.285Z,-2.98
2023-01-12T19:46:13.341Z,-2.96
2023-01-12T19:48:40.959Z,-2.95
2023-01-12T19:51:11.213Z,-2.98
2023-01-12T19:53:40.418Z,-2.94
2023-01-12T19:56:12.674Z,-2.99
2023-01-12T19:58:41.502Z,-2.97
2023-01-12T20:01:09.342Z,-2.99
2023-01-12T20:03:39.827Z,-3.08
2023-01-12T20:06:08.045Z,-2.99
2023-01-12T20:08:35.558Z,-3.04
2023-01-12T20:11:05.499Z,-3.09
2023-01-12T20:13:34.756Z,-3.05
2023-01-12T20:16:09.861Z,-2.92
2023-01-12T20:18:38.080Z,-2.89
2023-01-12T20:21:10.565Z,-2.92
2023-01-12T20:23:38.788Z,-2.86
2023-01-12T20:26:08.427Z,-2.89
2023-01-12T20:28:37.230Z,-3.01
2023-01-12T20:31:12.596Z,-3.00
2023-01-12T20:33:40.591Z,-2.94
2023-01-12T20:36:13.476Z,-2.88
2023-01-12T20:38:41.955Z,-2.90
2023-01-12T20:41:10.334Z,-2.84
2023-01-12T20:43:38.535Z,-2.85
2023-01-12T20:46:16.173Z,-2.85
2023-01-12T20:48:46.417Z,-2.75
2023-01-12T20:51:16.246Z,-2.67
2023-01-12T20:53:46.466Z,-2.62
2023-01-12T20:56:14.066Z,-2.71
2023-01-12T20:58:41.668Z,-2.77
2023-01-12T21:01:12.146Z,-2.79
2023-01-12T21:03:40.175Z,-2.77
2023-01-12T21:06:09.905Z,-2.81
2023-01-12T21:08:45.997Z,-2.73
2023-01-12T21:11:16.932Z,-2.72
2023-01-12T21:13:44.922Z,-2.68
2023-01-12T21:16:15.014Z,-2.62
2023-01-12T21:26:10.285Z,-2.60
2023-01-12T21:28:39.887Z,-2.61
2023-01-12T21:31:10.711Z,-2.59
2023-01-12T21:33:38.551Z,-2.53
2023-01-12T21:36:06.781Z,-2.42
2023-01-12T21:38:34.397Z,-2.46
2023-01-12T21:41:04.919Z,-2.54
2023-01-12T21:43:33.860Z,-2.54
2023-01-12T21:46:06.979Z,-2.57
2023-01-12T21:48:35.880Z,-2.53
2023-01-12T21:51:05.296Z,-2.44
2023-01-12T21:53:34.335Z,-2.44
2023-01-12T21:56:04.209Z,-2.34
2023-01-12T21:58:34.270Z,-2.37
2023-01-12T22:01:08.904Z,-2.35
2023-01-12T22:03:36.918Z,-2.28
2023-01-12T22:06:07.617Z,-2.26
2023-01-12T22:08:37.732Z,-2.21
2023-01-12T22:11:14.404Z,-2.25
2023-01-12T22:13:43.524Z,-2.27
2023-01-12T22:16:13.856Z,-2.25
2023-01-12T22:18:46.552Z,-2.26
2023-01-12T22:21:14.129Z,-2.17
2023-01-12T22:23:41.699Z,-2.20
2023-01-12T22:26:13.619Z,-2.15
2023-01-12T22:28:43.831Z,-2.14
2023-01-12T22:31:14.799Z,-2.24
2023-01-12T22:33:47.961Z,-2.28
2023-01-12T22:36:15.593Z,-2.25
2023-01-12T22:38:43.286Z,-2.15
2023-01-12T22:41:13.648Z,-2.04
2023-01-12T22:43:41.782Z,-1.93
2023-01-12T22:46:14.609Z,-1.96
2023-01-12T22:48:42.296Z,-1.89
2023-01-12T22:51:10.207Z,-2.00
2023-01-12T22:53:37.996Z,-2.09
2023-01-12T22:56:06.155Z,-2.10
2023-01-12T22:58:34.062Z,-2.01
2023-01-12T23:01:10.525Z,-1.97
2023-01-12T23:03:38.438Z,-1.99
2023-01-12T23:06:11.983Z,-1.98
2023-01-12T23:08:40.480Z,-1.97
2023-01-12T23:11:13.963Z,-1.97
2023-01-12T23:13:43.854Z,-2.03
2023-01-12T23:16:12.873Z,-1.99
2023-01-12T23:18:42.181Z,-1.95
2023-01-12T23:21:19.212Z,-1.97
2023-01-12T23:23:52.578Z,-1.93
2023-01-12T23:26:23.903Z,-1.95
2023-01-12T23:28:57.096Z,-1.97
2023-01-12T23:31:27.594Z,-1.99
2023-01-12T23:33:57.174Z,-2.00
2023-01-12T23:36:27.320Z,-1.99
2023-01-12T23:38:57.718Z,-1.93
2023-01-12T23:41:27.921Z,-1.92
2023-01-12T23:43:58.515Z,-1.89
2023-01-12T23:46:27.562Z,-1.85
2023-01-12T23:48:57.247Z,-1.84
2023-01-12T23:51:28.493Z,-1.87
2023-01-12T23:54:01.215Z,-1.87
2023-01-12T23:56:31.019Z,-1.84
2023-01-12T23:58:58.975Z,-1.77
